createdAt,value
2018-06-15T00:00:47.428Z,100.00
2018-06-15T00:03:15.699Z,100.00
2018-06-15T00:05:43.696Z,100.00
2018-06-15T00:08:11.792Z,100.00
2018-06-15T00:10:39.827Z,100.00
2018-06-15T00:13:07.873Z,100.00
2018-06-15T00:15:35.985Z,100.00
2018-06-15T00:18:04.142Z,100.00
2018-06-15T00:20:32.177Z,100.00
2018-06-15T00:23:00.181Z,100.00
2018-06-15T00:25:28.210Z,100.00
2018-06-15T00:27:56.303Z,100.00
2018-06-15T00:30:24.357Z,100.00
2018-06-15T00:32:52.417Z,100.00
2018-06-15T00:35:20.537Z,100.00
2018-06-15T00:37:48.531Z,100.00
2018-06-15T00:40:16.545Z,100.00
2018-06-15T00:42:44.574Z,100.00
2018-06-15T00:45:12.569Z,100.00
2018-06-15T00:47:40.901Z,100.00
2018-06-15T00:50:09.074Z,100.00
2018-06-15T00:52:37.136Z,100.00
2018-06-15T00:55:05.163Z,100.00
2018-06-15T00:57:43.363Z,100.00
2018-06-15T01:00:11.311Z,100.00
2018-06-15T01:02:39.329Z,100.00
2018-06-15T01:05:07.499Z,100.00
2018-06-15T01:07:35.588Z,100.00
2018-06-15T01:10:03.677Z,100.00
2018-06-15T01:12:31.730Z,100.00
2018-06-15T01:14:59.735Z,100.00
2018-06-15T01:17:27.804Z,100.00
2018-06-15T01:19:56.314Z,100.00
2018-06-15T01:22:24.331Z,100.00
2018-06-15T01:24:52.362Z,100.00
2018-06-15T01:27:20.421Z,100.00
2018-06-15T01:29:48.434Z,100.00
2018-06-15T01:32:16.466Z,100.00
2018-06-15T01:34:44.553Z,100.00
2018-06-15T01:37:12.606Z,100.00
2018-06-15T01:39:40.691Z,100.00
2018-06-15T01:42:08.689Z,100.00
2018-06-15T01:44:36.665Z,100.00
2018-06-15T01:47:04.637Z,100.00
2018-06-15T01:49:32.654Z,100.00
2018-06-15T01:52:00.740Z,100.00
2018-06-15T01:54:28.772Z,100.00
2018-06-15T01:56:56.808Z,100.00
2018-06-15T01:59:24.747Z,100.00
2018-06-15T02:01:52.708Z,100.00
2018-06-15T02:04:20.697Z,100.00
2018-06-15T02:06:48.783Z,100.00
2018-06-15T02:09:16.833Z,100.00
2018-06-15T02:11:44.829Z,100.00
2018-06-15T02:14:12.904Z,100.00
2018-06-15T02:16:40.964Z,100.00
2018-06-15T02:19:09.041Z,100.00
2018-06-15T02:21:37.020Z,100.00
2018-06-15T02:24:05.140Z,100.00
2018-06-15T02:26:33.127Z,100.00
2018-06-15T02:29:01.112Z,100.00
2018-06-15T02:31:29.186Z,100.00
2018-06-15T02:33:57.165Z,100.00
2018-06-15T02:36:25.199Z,100.00
2018-06-15T02:38:53.290Z,100.00
2018-06-15T02:41:21.336Z,100.00
2018-06-15T02:43:49.419Z,100.00
2018-06-15T02:46:17.556Z,100.00
2018-06-15T02:48:45.634Z,100.00
2018-06-15T02:51:13.830Z,100.00
2018-06-15T02:53:41.914Z,100.00
2018-06-15T02:56:10.004Z,100.00
2018-06-15T02:58:38.007Z,100.00
2018-06-15T03:01:06.068Z,100.00
2018-06-15T03:03:34.041Z,100.00
2018-06-15T03:06:02.040Z,100.00
2018-06-15T03:08:30.074Z,100.00
2018-06-15T03:10:58.126Z,100.00
2018-06-15T03:13:26.208Z,100.00
2018-06-15T03:15:54.241Z,100.00
2018-06-15T03:18:22.271Z,100.00
2018-06-15T03:20:50.444Z,100.00
2018-06-15T03:23:18.571Z,100.00
2018-06-15T03:25:46.537Z,100.00
2018-06-15T03:28:14.742Z,100.00
2018-06-15T03:30:42.701Z,100.00
2018-06-15T03:33:10.729Z,100.00
2018-06-15T03:35:38.892Z,100.00
2018-06-15T03:38:06.971Z,100.00
2018-06-15T03:40:35.060Z,100.00
2018-06-15T03:43:03.101Z,100.00
2018-06-15T03:45:31.154Z,100.00
2018-06-15T03:47:59.183Z,97.06
2018-06-15T03:50:27.130Z,95.35
2018-06-15T03:52:55.160Z,94.88
2018-06-15T03:55:23.171Z,91.33
2018-06-15T03:57:51.258Z,90.76
2018-06-15T04:00:19.284Z,89.38
2018-06-15T04:02:47.303Z,90.72
2018-06-15T04:05:15.361Z,92.72
2018-06-15T04:07:43.440Z,92.30
2018-06-15T04:10:11.592Z,91.84
2018-06-15T04:12:40.060Z,90.57
2018-06-15T04:15:08.076Z,85.47
2018-06-15T04:17:36.039Z,80.99
2018-06-15T04:20:04.331Z,80.75
2018-06-15T04:22:32.445Z,85.24
2018-06-15T04:25:00.845Z,87.36
2018-06-15T04:27:29.284Z,88.50
2018-06-15T04:29:57.439Z,90.43
2018-06-15T04:32:25.512Z,90.98
2018-06-15T04:34:53.574Z,88.96
2018-06-15T04:37:21.691Z,86.01
2018-06-15T04:39:49.771Z,86.33
2018-06-15T04:42:17.885Z,86.51
2018-06-15T04:44:46.217Z,87.14
2018-06-15T04:47:14.351Z,89.10
2018-06-15T04:49:42.508Z,88.40
2018-06-15T04:52:10.588Z,85.24
2018-06-15T04:54:38.661Z,86.50
2018-06-15T04:57:06.759Z,88.24
2018-06-15T04:59:34.831Z,89.96
2018-06-15T05:02:02.952Z,92.18
2018-06-15T05:04:31.168Z,92.82
2018-06-15T05:06:59.295Z,92.96
2018-06-15T05:09:27.526Z,92.74
2018-06-15T05:11:55.691Z,95.00
2018-06-15T05:14:23.808Z,94.94
2018-06-15T05:16:51.962Z,95.44
2018-06-15T05:19:20.147Z,93.47
2018-06-15T05:21:48.243Z,95.41
2018-06-15T05:24:16.366Z,95.80
2018-06-15T05:26:44.482Z,95.86
2018-06-15T05:29:12.753Z,96.12
2018-06-15T05:31:40.816Z,97.03
2018-06-15T05:34:09.159Z,97.52
2018-06-15T05:36:37.200Z,96.56
2018-06-15T05:39:08.212Z,95.43
2018-06-15T05:41:36.703Z,93.12
2018-06-15T05:44:04.864Z,87.96
2018-06-15T05:46:33.128Z,80.28
2018-06-15T05:49:01.267Z,77.67
2018-06-15T05:51:29.450Z,78.07
2018-06-15T05:53:57.659Z,75.98
2018-06-15T05:56:26.091Z,81.85
2018-06-15T05:58:54.892Z,81.43
2018-06-15T06:01:23.328Z,83.54
2018-06-15T06:03:51.574Z,81.85
2018-06-15T06:06:19.805Z,80.07
2018-06-15T06:08:48.402Z,79.27
2018-06-15T06:11:16.991Z,71.88
2018-06-15T06:13:45.440Z,74.21
2018-06-15T06:16:13.998Z,71.46
2018-06-15T06:18:42.419Z,70.22
2018-06-15T06:21:10.690Z,70.04
2018-06-15T06:23:38.971Z,70.46
2018-06-15T06:26:07.144Z,70.15
2018-06-15T06:28:35.680Z,74.35
2018-06-15T06:31:04.030Z,73.33
2018-06-15T06:33:32.759Z,73.23
2018-06-15T06:36:01.064Z,72.90
2018-06-15T06:38:29.700Z,75.89
2018-06-15T06:40:57.908Z,77.07
2018-06-15T06:43:26.093Z,77.73
2018-06-15T06:45:54.191Z,74.53
2018-06-15T06:48:22.431Z,78.22
2018-06-15T06:50:50.869Z,75.76
2018-06-15T06:53:19.307Z,75.05
2018-06-15T06:55:47.497Z,76.63
2018-06-15T06:58:15.654Z,73.19
2018-06-15T07:00:43.752Z,73.98
2018-06-15T07:03:11.964Z,78.63
2018-06-15T07:05:40.167Z,72.14
2018-06-15T07:08:08.273Z,68.14
2018-06-15T07:10:36.584Z,65.11
2018-06-15T07:13:04.840Z,69.74
2018-06-15T07:15:33.029Z,67.80
2018-06-15T07:18:01.115Z,69.80
2018-06-15T07:20:29.409Z,68.93
2018-06-15T07:22:57.720Z,68.85
2018-06-15T07:25:25.975Z,67.38
2018-06-15T07:27:54.245Z,70.16
2018-06-15T07:30:22.598Z,70.41
2018-06-15T07:32:50.888Z,67.84
2018-06-15T07:35:19.031Z,67.29
2018-06-15T07:37:47.340Z,67.09
2018-06-15T07:40:15.840Z,62.09
2018-06-15T07:42:43.949Z,64.45
2018-06-15T07:45:12.298Z,64.94
2018-06-15T07:47:40.735Z,63.79
2018-06-15T07:50:08.963Z,57.57
2018-06-15T07:52:37.536Z,64.24
2018-06-15T07:55:06.205Z,62.32
2018-06-15T07:57:34.374Z,60.33
2018-06-15T08:00:02.752Z,57.21
2018-06-15T08:02:31.070Z,56.07
2018-06-15T08:04:59.400Z,58.26
2018-06-15T08:07:27.797Z,57.84
2018-06-15T08:09:55.963Z,60.53
2018-06-15T08:12:24.175Z,62.39
2018-06-15T08:14:52.428Z,63.35
2018-06-15T08:17:20.689Z,59.43
2018-06-15T08:19:49.076Z,62.93
2018-06-15T08:22:17.178Z,66.52
2018-06-15T08:24:45.372Z,60.11
2018-06-15T08:27:13.410Z,63.61
2018-06-15T08:29:41.566Z,61.69
2018-06-15T08:32:10.060Z,59.48
2018-06-15T08:34:38.239Z,63.13
2018-06-15T08:37:06.424Z,58.16
2018-06-15T08:39:34.633Z,59.17
2018-06-15T08:42:02.793Z,61.17
2018-06-15T08:44:31.176Z,62.70
2018-06-15T08:46:59.294Z,66.38
2018-06-15T08:49:27.419Z,60.78
2018-06-15T08:51:55.747Z,59.35
2018-06-15T08:54:24.278Z,56.77
2018-06-15T08:56:52.526Z,58.73
2018-06-15T08:59:20.808Z,58.02
2018-06-15T09:01:49.515Z,60.76
2018-06-15T09:04:17.958Z,60.68
2018-06-15T09:06:46.318Z,57.96
2018-06-15T09:09:14.556Z,60.38
2018-06-15T09:11:42.696Z,55.26
2018-06-15T09:14:10.940Z,60.79
2018-06-15T09:16:40.027Z,60.25
2018-06-15T09:19:08.420Z,59.05
2018-06-15T09:21:37.526Z,57.75
2018-06-15T09:24:05.828Z,56.16
2018-06-15T09:26:34.345Z,58.51
2018-06-15T09:29:02.605Z,54.79
2018-06-15T09:31:30.873Z,53.81
2018-06-15T09:33:59.147Z,56.71
2018-06-15T09:36:27.278Z,62.31
2018-06-15T09:38:56.011Z,60.72
2018-06-15T09:41:24.834Z,56.70
2018-06-15T09:43:53.465Z,52.30
2018-06-15T09:46:21.874Z,54.57
2018-06-15T09:48:50.030Z,52.54
2018-06-15T09:51:18.367Z,58.36
2018-06-15T09:53:46.752Z,59.20
2018-06-15T09:56:15.150Z,53.39
2018-06-15T09:58:43.870Z,51.60
2018-06-15T10:01:12.787Z,50.71
2018-06-15T10:03:43.232Z,54.38
2018-06-15T10:06:12.719Z,56.31
2018-06-15T10:08:42.708Z,54.55
2018-06-15T10:11:12.096Z,56.27
2018-06-15T10:13:41.393Z,61.40
2018-06-15T10:16:10.508Z,58.80
2018-06-15T10:18:39.627Z,61.70
2018-06-15T10:21:08.506Z,71.69
2018-06-15T10:23:37.578Z,77.17
2018-06-15T10:26:07.035Z,79.17
2018-06-15T10:28:39.544Z,81.13
2018-06-15T10:31:08.106Z,83.78
2018-06-15T10:33:36.838Z,85.05
2018-06-15T10:36:06.207Z,83.67
2018-06-15T10:38:35.097Z,82.62
2018-06-15T10:41:04.284Z,82.21
2018-06-15T10:43:33.513Z,85.22
2018-06-15T10:46:02.327Z,87.12
2018-06-15T10:48:31.222Z,85.34
2018-06-15T10:51:00.403Z,75.96
2018-06-15T10:53:29.316Z,84.67
2018-06-15T10:55:58.941Z,84.44
2018-06-15T10:58:28.206Z,86.37
2018-06-15T11:00:57.660Z,86.12
2018-06-15T11:03:26.837Z,85.73
2018-06-15T11:05:56.631Z,86.30
2018-06-15T11:08:25.396Z,86.21
2018-06-15T11:10:54.045Z,87.15
2018-06-15T11:13:23.073Z,87.28
2018-06-15T11:15:51.958Z,86.18
2018-06-15T11:18:20.690Z,83.84
2018-06-15T11:20:49.448Z,82.43
2018-06-15T11:23:18.862Z,79.64
2018-06-15T11:25:47.415Z,73.33
2018-06-15T11:28:16.053Z,77.97
2018-06-15T11:30:44.696Z,73.60
2018-06-15T11:33:13.534Z,71.83
2018-06-15T11:35:42.354Z,66.49
2018-06-15T11:38:11.169Z,53.79
2018-06-15T11:40:40.791Z,59.91
2018-06-15T11:43:09.685Z,64.41
2018-06-15T11:45:38.685Z,68.29
2018-06-15T11:48:07.493Z,70.34
2018-06-15T11:50:36.283Z,73.93
2018-06-15T11:53:05.122Z,73.96
2018-06-15T11:55:33.892Z,75.60
2018-06-15T11:58:02.677Z,75.89
2018-06-15T12:00:31.299Z,77.30
2018-06-15T12:03:00.400Z,76.41
2018-06-15T12:05:29.861Z,75.80
2018-06-15T12:07:58.570Z,75.44
2018-06-15T12:10:27.433Z,79.24
2018-06-15T12:12:56.700Z,83.14
2018-06-15T12:15:29.321Z,82.25
2018-06-15T12:18:06.524Z,83.51
2018-06-15T12:20:41.128Z,82.56
2018-06-15T12:23:30.486Z,82.24
2018-06-15T12:26:05.785Z,81.37
2018-06-15T12:28:36.281Z,82.64
2018-06-15T12:31:06.001Z,81.93
2018-06-15T12:33:38.888Z,83.34
2018-06-15T12:36:12.332Z,81.01
2018-06-15T12:38:41.882Z,84.41
2018-06-15T12:41:11.592Z,84.31
2018-06-15T12:43:40.669Z,83.49
2018-06-15T12:46:09.275Z,87.67
2018-06-15T12:48:38.428Z,84.28
2018-06-15T12:51:07.516Z,81.41
2018-06-15T12:53:36.824Z,87.01
2018-06-15T12:56:08.513Z,83.48
2018-06-15T12:58:39.873Z,80.64
2018-06-15T13:01:09.080Z,82.98
2018-06-15T13:03:38.608Z,81.59
2018-06-15T13:06:10.539Z,82.90
2018-06-15T13:08:46.416Z,76.98
2018-06-15T13:11:18.470Z,80.03
2018-06-15T13:13:51.816Z,78.62
2018-06-15T13:16:34.752Z,79.45
2018-06-15T13:19:06.412Z,80.19
2018-06-15T13:21:49.158Z,74.31
2018-06-15T13:24:19.764Z,76.63
2018-06-15T13:26:52.746Z,72.13
2018-06-15T13:29:21.576Z,72.95
2018-06-15T13:31:50.551Z,72.38
2018-06-15T13:34:19.421Z,79.66
2018-06-15T13:36:48.353Z,70.11
2018-06-15T13:39:17.025Z,74.31
2018-06-15T13:41:49.916Z,70.84
2018-06-15T13:44:19.693Z,77.29
2018-06-15T13:46:50.092Z,70.97
2018-06-15T13:49:20.554Z,72.29
2018-06-15T13:51:49.635Z,71.34
2018-06-15T13:54:18.073Z,71.17
2018-06-15T13:56:47.237Z,70.00
2018-06-15T13:59:16.076Z,71.00
2018-06-15T14:01:45.349Z,65.95
2018-06-15T14:04:14.297Z,66.84
2018-06-15T14:06:43.518Z,66.83
2018-06-15T14:09:12.325Z,74.03
2018-06-15T14:11:41.188Z,71.23
2018-06-15T14:14:09.784Z,66.22
2018-06-15T14:16:39.192Z,71.05
2018-06-15T14:19:08.002Z,65.69
2018-06-15T14:21:36.616Z,66.98
2018-06-15T14:24:05.439Z,61.66
2018-06-15T14:26:34.265Z,65.97
2018-06-15T14:29:04.226Z,67.61
2018-06-15T14:31:33.076Z,65.80
2018-06-15T14:34:02.287Z,69.69
2018-06-15T14:36:31.225Z,68.76
2018-06-15T14:38:59.915Z,66.15
2018-06-15T14:41:28.886Z,62.86
2018-06-15T14:43:58.243Z,64.53
2018-06-15T14:46:27.468Z,69.15
2018-06-15T14:48:58.114Z,66.04
2018-06-15T14:51:27.925Z,63.00
2018-06-15T14:53:57.470Z,61.78
2018-06-15T14:56:27.208Z,64.61
2018-06-15T14:58:56.341Z,66.42
2018-06-15T15:01:25.956Z,69.54
2018-06-15T15:03:54.922Z,69.57
2018-06-15T15:06:24.557Z,75.07
2018-06-15T15:08:54.361Z,74.04
2018-06-15T15:11:22.982Z,76.32
2018-06-15T15:13:51.920Z,84.83
2018-06-15T15:16:22.552Z,80.47
2018-06-15T15:18:52.032Z,82.53
2018-06-15T15:21:21.402Z,85.44
2018-06-15T15:23:52.291Z,88.10
2018-06-15T15:26:22.854Z,90.63
2018-06-15T15:28:52.775Z,92.87
2018-06-15T15:31:22.149Z,93.10
2018-06-15T15:33:51.364Z,94.09
2018-06-15T15:36:21.275Z,95.36
2018-06-15T15:38:50.338Z,96.02
2018-06-15T15:41:19.083Z,94.24
2018-06-15T15:43:47.876Z,95.52
2018-06-15T15:46:16.559Z,96.08
2018-06-15T15:48:45.356Z,97.05
2018-06-15T15:51:14.376Z,97.16
2018-06-15T15:53:44.825Z,95.49
2018-06-15T15:56:14.111Z,96.38
2018-06-15T15:58:43.189Z,99.94
2018-06-15T16:01:12.193Z,98.51
2018-06-15T16:03:41.126Z,98.96
2018-06-15T16:06:10.212Z,97.99
2018-06-15T16:08:39.099Z,96.88
2018-06-15T16:11:08.593Z,97.08
2018-06-15T16:13:37.833Z,98.59
2018-06-15T16:16:08.109Z,98.45
2018-06-15T16:18:37.273Z,97.68
2018-06-15T16:21:07.268Z,97.18
2018-06-15T16:23:36.557Z,98.97
2018-06-15T16:26:05.692Z,97.65
2018-06-15T16:28:35.003Z,98.37
2018-06-15T16:31:04.411Z,98.29
2018-06-15T16:33:33.174Z,98.83
2018-06-15T16:36:02.141Z,98.02
2018-06-15T16:38:31.350Z,97.57
2018-06-15T16:41:00.618Z,97.85
2018-06-15T16:43:29.469Z,97.64
2018-06-15T16:45:58.313Z,98.57
2018-06-15T16:48:27.011Z,98.24
2018-06-15T16:50:56.104Z,96.42
2018-06-15T16:53:25.066Z,99.97
2018-06-15T16:55:54.170Z,98.97
2018-06-15T16:58:22.794Z,98.27
2018-06-15T17:00:54.032Z,97.59
2018-06-15T17:03:23.757Z,98.88
2018-06-15T17:05:53.021Z,100.00
2018-06-15T17:08:22.585Z,100.00
2018-06-15T17:10:51.511Z,100.00
2018-06-15T17:13:23.844Z,100.00
2018-06-15T17:15:54.113Z,100.00
2018-06-15T17:18:23.009Z,98.51
2018-06-15T17:20:52.268Z,98.92
2018-06-15T17:23:21.530Z,99.20
2018-06-15T17:25:50.695Z,99.16
2018-06-15T17:28:19.497Z,100.00
2018-06-15T17:30:49.770Z,99.94
2018-06-15T17:33:18.508Z,100.00
2018-06-15T17:35:48.351Z,99.62
2018-06-15T17:38:17.192Z,99.55
2018-06-15T17:40:47.108Z,100.00
2018-06-15T17:43:16.149Z,100.00
2018-06-15T17:45:45.206Z,100.00
2018-06-15T17:48:14.723Z,100.00
2018-06-15T17:50:43.458Z,100.00
2018-06-15T17:56:09.969Z,100.00
2018-06-15T17:58:38.673Z,100.00
2018-06-15T18:01:07.664Z,98.59
2018-06-15T18:03:36.327Z,99.36
2018-06-15T18:06:05.337Z,100.00
2018-06-15T18:08:34.844Z,100.00
2018-06-15T18:11:03.838Z,100.00
2018-06-15T18:13:32.554Z,100.00
2018-06-15T18:16:01.434Z,100.00
2018-06-15T18:18:51.280Z,100.00
2018-06-15T18:21:19.998Z,100.00
2018-06-15T18:23:48.825Z,100.00
2018-06-15T18:26:21.080Z,100.00
2018-06-15T18:28:50.028Z,100.00
2018-06-15T18:31:20.467Z,100.00
2018-06-15T18:33:49.495Z,100.00
2018-06-15T18:36:19.002Z,100.00
2018-06-15T18:38:49.801Z,100.00
2018-06-15T18:41:18.414Z,100.00
2018-06-15T18:43:48.713Z,100.00
2018-06-15T18:46:23.612Z,100.00
2018-06-15T18:51:36.444Z,100.00
2018-06-15T18:54:05.151Z,100.00
2018-06-15T18:56:34.037Z,100.00
2018-06-15T18:59:02.736Z,100.00
2018-06-15T19:01:31.435Z,100.00
2018-06-15T19:04:00.026Z,100.00
2018-06-15T19:06:28.778Z,100.00
2018-06-15T19:08:57.241Z,100.00
2018-06-15T19:11:27.479Z,100.00
2018-06-15T19:13:56.791Z,100.00
2018-06-15T19:16:27.398Z,100.00
2018-06-15T19:18:57.472Z,100.00
2018-06-15T19:21:28.715Z,100.00
2018-06-15T19:23:59.283Z,100.00
2018-06-15T19:26:29.699Z,100.00
2018-06-15T19:28:59.586Z,100.00
2018-06-15T19:31:29.007Z,100.00
2018-06-15T19:33:59.188Z,100.00
2018-06-15T19:36:28.921Z,100.00
2018-06-15T19:38:58.144Z,100.00
2018-06-15T19:41:28.672Z,100.00
2018-06-15T19:43:57.613Z,100.00
2018-06-15T19:46:28.345Z,100.00
2018-06-15T19:49:00.022Z,100.00
2018-06-15T19:51:29.790Z,100.00
2018-06-15T19:53:58.959Z,100.00
2018-06-15T19:56:31.280Z,100.00
2018-06-15T19:59:00.341Z,100.00
2018-06-15T20:01:29.257Z,100.00
2018-06-15T20:03:58.853Z,100.00
2018-06-15T20:06:27.614Z,100.00
2018-06-15T20:08:56.404Z,100.00
2018-06-15T20:11:25.292Z,100.00
2018-06-15T20:13:54.336Z,100.00
2018-06-15T20:16:22.932Z,100.00
2018-06-15T20:18:51.639Z,100.00
2018-06-15T20:21:20.213Z,100.00
2018-06-15T20:23:48.719Z,100.00
2018-06-15T20:26:17.394Z,100.00
2018-06-15T20:28:46.169Z,100.00
2018-06-15T20:31:14.702Z,100.00
2018-06-15T20:33:43.587Z,100.00
2018-06-15T20:36:12.394Z,100.00
2018-06-15T20:38:41.227Z,100.00
2018-06-15T20:41:10.441Z,100.00
2018-06-15T20:43:39.243Z,100.00
2018-06-15T20:46:07.998Z,100.00
2018-06-15T20:48:36.741Z,100.00
2018-06-15T20:51:05.481Z,100.00
2018-06-15T20:53:34.068Z,100.00
2018-06-15T20:56:02.736Z,100.00
2018-06-15T20:58:31.471Z,100.00
2018-06-15T21:00:59.979Z,100.00
2018-06-15T21:03:28.521Z,100.00
2018-06-15T21:05:57.155Z,100.00
2018-06-15T21:08:25.780Z,100.00
2018-06-15T21:10:54.365Z,100.00
2018-06-15T21:13:22.975Z,100.00
2018-06-15T21:15:52.373Z,100.00
2018-06-15T21:18:20.935Z,100.00
2018-06-15T21:20:49.843Z,100.00
2018-06-15T21:23:18.434Z,100.00
2018-06-15T21:25:47.016Z,100.00
2018-06-15T21:28:15.203Z,100.00
2018-06-15T21:30:43.294Z,100.00
2018-06-15T21:33:11.312Z,100.00
2018-06-15T21:35:39.325Z,100.00
2018-06-15T21:38:07.361Z,100.00
2018-06-15T21:40:35.483Z,100.00
2018-06-15T21:43:03.561Z,100.00
2018-06-15T21:45:31.741Z,100.00
2018-06-15T21:47:59.808Z,100.00
2018-06-15T21:50:27.853Z,100.00
2018-06-15T21:52:56.005Z,100.00
2018-06-15T21:55:25.269Z,100.00
2018-06-15T21:57:53.418Z,100.00
2018-06-15T22:00:21.410Z,100.00
2018-06-15T22:02:49.511Z,100.00
2018-06-15T22:05:18.203Z,100.00
2018-06-15T22:07:46.309Z,100.00
2018-06-15T22:10:14.399Z,100.00
2018-06-15T22:12:42.508Z,100.00
2018-06-15T22:15:10.579Z,100.00
2018-06-15T22:17:38.616Z,100.00
2018-06-15T22:20:06.729Z,100.00
2018-06-15T22:22:34.791Z,100.00
2018-06-15T22:25:02.886Z,100.00
2018-06-15T22:27:30.945Z,100.00
2018-06-15T22:29:58.944Z,100.00
2018-06-15T22:32:26.947Z,100.00
2018-06-15T22:34:54.980Z,100.00
2018-06-15T22:37:23.117Z,100.00
2018-06-15T22:39:51.208Z,100.00
2018-06-15T22:42:19.266Z,100.00
2018-06-15T22:44:47.255Z,100.00
2018-06-15T22:47:15.321Z,100.00
2018-06-15T22:49:43.325Z,100.00
2018-06-15T22:52:11.408Z,100.00
2018-06-15T22:54:39.506Z,100.00
2018-06-15T22:57:07.652Z,100.00
2018-06-15T22:59:35.685Z,100.00
2018-06-15T23:02:03.699Z,100.00
2018-06-15T23:04:31.803Z,100.00
2018-06-15T23:06:59.847Z,100.00
2018-06-15T23:09:27.955Z,100.00
2018-06-15T23:11:56.001Z,100.00
2018-06-15T23:14:24.049Z,100.00
2018-06-15T23:16:52.180Z,100.00
2018-06-15T23:19:20.241Z,100.00
2018-06-15T23:21:48.240Z,100.00
2018-06-15T23:24:16.238Z,100.00
2018-06-15T23:26:44.355Z,100.00
2018-06-15T23:29:12.428Z,100.00
2018-06-15T23:31:40.440Z,100.00
2018-06-15T23:34:08.493Z,100.00
2018-06-15T23:36:36.703Z,100.00
2018-06-15T23:39:07.064Z,100.00
2018-06-15T23:41:35.123Z,100.00
2018-06-15T23:44:03.440Z,100.00
2018-06-15T23:46:31.564Z,100.00
2018-06-15T23:48:59.655Z,100.00
2018-06-15T23:51:27.679Z,100.00
2018-06-15T23:53:55.738Z,100.00
2018-06-15T23:56:23.809Z,100.00
2018-06-15T23:58:51.785Z,100.00
